sensor_id;sensor_type;location;lat;lon;timestamp;P1;durP1;ratioP1;P2;durP2;ratioP2
23410;SDS011;11878;51.774;7.220;2022-09-24T00:00:07;8.17;;;4.23;;
23410;SDS011;11878;51.774;7.220;2022-09-24T00:03:09;10.03;;;4.93;;
23410;SDS011;11878;51.774;7.220;2022-09-24T00:06:12;11.93;;;5.60;;
23410;SDS011;11878;51.774;7.220;2022-09-24T00:09:19;9.63;;;4.83;;
23410;SDS011;11878;51.774;7.220;2022-09-24T00:12:22;18.43;;;5.67;;
23410;SDS011;11878;51.774;7.220;2022-09-24T00:15:24;9.30;;;5.70;;
23410;SDS011;11878;51.774;7.220;2022-09-24T00:18:25;8.70;;;5.63;;
23410;SDS011;11878;51.774;7.220;2022-09-24T00:21:29;12.50;;;6.30;;
23410;SDS011;11878;51.774;7.220;2022-09-24T00:24:32;13.50;;;6.73;;
23410;SDS011;11878;51.774;7.220;2022-09-24T00:27:52;13.57;;;6.97;;
23410;SDS011;11878;51.774;7.220;2022-09-24T00:30:54;14.10;;;7.80;;
23410;SDS011;11878;51.774;7.220;2022-09-24T00:33:59;11.30;;;7.10;;
23410;SDS011;11878;51.774;7.220;2022-09-24T00:37:02;14.77;;;8.13;;
23410;SDS011;11878;51.774;7.220;2022-09-24T00:40:04;18.87;;;9.53;;
23410;SDS011;11878;51.774;7.220;2022-09-24T00:46:31;17.30;;;9.77;;
23410;SDS011;11878;51.774;7.220;2022-09-24T00:49:39;12.63;;;9.07;;
23410;SDS011;11878;51.774;7.220;2022-09-24T00:52:47;13.33;;;8.50;;
23410;SDS011;11878;51.774;7.220;2022-09-24T00:55:56;14.93;;;9.93;;
23410;SDS011;11878;51.774;7.220;2022-09-24T00:59:00;18.30;;;10.00;;
23410;SDS011;11878;51.774;7.220;2022-09-24T01:02:04;14.50;;;8.30;;
23410;SDS011;11878;51.774;7.220;2022-09-24T01:05:06;16.10;;;9.00;;
23410;SDS011;11878;51.774;7.220;2022-09-24T01:08:11;14.70;;;8.80;;
23410;SDS011;11878;51.774;7.220;2022-09-24T01:14:58;16.20;;;8.10;;
23410;SDS011;11878;51.774;7.220;2022-09-24T01:18:06;17.37;;;9.70;;
23410;SDS011;11878;51.774;7.220;2022-09-24T01:24:29;15.73;;;9.20;;
23410;SDS011;11878;51.774;7.220;2022-09-24T01:31:14;15.67;;;9.53;;
23410;SDS011;11878;51.774;7.220;2022-09-24T01:34:24;16.83;;;10.60;;
23410;SDS011;11878;51.774;7.220;2022-09-24T01:37:30;16.60;;;9.37;;
23410;SDS011;11878;51.774;7.220;2022-09-24T01:40:35;20.60;;;9.90;;
23410;SDS011;11878;51.774;7.220;2022-09-24T01:43:38;15.60;;;9.33;;
23410;SDS011;11878;51.774;7.220;2022-09-24T01:46:40;17.17;;;10.53;;
23410;SDS011;11878;51.774;7.220;2022-09-24T01:49:42;17.63;;;9.63;;
23410;SDS011;11878;51.774;7.220;2022-09-24T01:52:47;17.27;;;9.57;;
23410;SDS011;11878;51.774;7.220;2022-09-24T01:56:27;17.83;;;9.23;;
23410;SDS011;11878;51.774;7.220;2022-09-24T01:59:39;14.67;;;9.60;;
23410;SDS011;11878;51.774;7.220;2022-09-24T02:02:56;14.20;;;9.10;;
23410;SDS011;11878;51.774;7.220;2022-09-24T02:06:09;19.43;;;9.80;;
23410;SDS011;11878;51.774;7.220;2022-09-24T02:09:36;18.63;;;10.87;;
23410;SDS011;11878;51.774;7.220;2022-09-24T02:12:40;18.73;;;11.03;;
23410;SDS011;11878;51.774;7.220;2022-09-24T02:15:45;20.70;;;10.03;;
23410;SDS011;11878;51.774;7.220;2022-09-24T02:18:50;17.33;;;10.20;;
23410;SDS011;11878;51.774;7.220;2022-09-24T02:21:54;19.13;;;11.10;;
23410;SDS011;11878;51.774;7.220;2022-09-24T02:24:58;15.03;;;9.23;;
23410;SDS011;11878;51.774;7.220;2022-09-24T02:28:02;15.90;;;9.57;;
23410;SDS011;11878;51.774;7.220;2022-09-24T02:31:06;16.00;;;10.70;;
23410;SDS011;11878;51.774;7.220;2022-09-24T02:34:13;17.93;;;10.10;;
23410;SDS011;11878;51.774;7.220;2022-09-24T02:37:21;15.87;;;9.00;;
23410;SDS011;11878;51.774;7.220;2022-09-24T02:40:24;20.50;;;11.07;;
23410;SDS011;11878;51.774;7.220;2022-09-24T02:43:26;18.27;;;10.30;;
23410;SDS011;11878;51.774;7.220;2022-09-24T02:46:28;19.23;;;11.23;;
23410;SDS011;11878;51.774;7.220;2022-09-24T02:49:30;15.23;;;10.73;;
23410;SDS011;11878;51.774;7.220;2022-09-24T02:52:32;19.80;;;11.27;;
23410;SDS011;11878;51.774;7.220;2022-09-24T02:55:33;17.67;;;11.60;;
23410;SDS011;11878;51.774;7.220;2022-09-24T02:58:35;19.47;;;11.30;;
23410;SDS011;11878;51.774;7.220;2022-09-24T03:01:40;17.37;;;11.33;;
23410;SDS011;11878;51.774;7.220;2022-09-24T03:04:41;23.17;;;13.30;;
23410;SDS011;11878;51.774;7.220;2022-09-24T03:07:43;24.17;;;13.77;;
23410;SDS011;11878;51.774;7.220;2022-09-24T03:10:46;24.37;;;13.20;;
23410;SDS011;11878;51.774;7.220;2022-09-24T03:13:48;21.63;;;12.43;;
23410;SDS011;11878;51.774;7.220;2022-09-24T03:16:50;23.30;;;13.83;;
23410;SDS011;11878;51.774;7.220;2022-09-24T03:19:52;25.03;;;14.87;;
23410;SDS011;11878;51.774;7.220;2022-09-24T03:22:54;24.00;;;14.60;;
23410;SDS011;11878;51.774;7.220;2022-09-24T03:25:56;23.67;;;15.50;;
23410;SDS011;11878;51.774;7.220;2022-09-24T03:28:59;25.27;;;15.20;;
23410;SDS011;11878;51.774;7.220;2022-09-24T03:32:01;25.57;;;14.10;;
23410;SDS011;11878;51.774;7.220;2022-09-24T03:35:03;23.67;;;14.87;;
23410;SDS011;11878;51.774;7.220;2022-09-24T03:38:05;28.43;;;15.73;;
23410;SDS011;11878;51.774;7.220;2022-09-24T03:41:07;24.60;;;15.07;;
23410;SDS011;11878;51.774;7.220;2022-09-24T03:44:10;22.13;;;13.53;;
23410;SDS011;11878;51.774;7.220;2022-09-24T03:47:11;26.63;;;14.67;;
23410;SDS011;11878;51.774;7.220;2022-09-24T03:50:13;21.27;;;13.17;;
23410;SDS011;11878;51.774;7.220;2022-09-24T03:53:15;24.17;;;14.00;;
23410;SDS011;11878;51.774;7.220;2022-09-24T03:56:17;21.37;;;12.80;;
23410;SDS011;11878;51.774;7.220;2022-09-24T03:59:19;24.37;;;13.67;;
23410;SDS011;11878;51.774;7.220;2022-09-24T04:02:20;22.93;;;12.87;;
23410;SDS011;11878;51.774;7.220;2022-09-24T04:05:22;22.43;;;12.73;;
23410;SDS011;11878;51.774;7.220;2022-09-24T04:08:24;25.37;;;13.13;;
23410;SDS011;11878;51.774;7.220;2022-09-24T04:11:26;25.00;;;14.43;;
23410;SDS011;11878;51.774;7.220;2022-09-24T04:14:28;21.70;;;14.50;;
23410;SDS011;11878;51.774;7.220;2022-09-24T04:17:30;21.60;;;12.53;;
23410;SDS011;11878;51.774;7.220;2022-09-24T04:20:32;26.27;;;13.57;;
23410;SDS011;11878;51.774;7.220;2022-09-24T04:23:35;25.90;;;14.23;;
23410;SDS011;11878;51.774;7.220;2022-09-24T04:26:36;23.30;;;14.33;;
23410;SDS011;11878;51.774;7.220;2022-09-24T04:29:38;23.07;;;13.73;;
23410;SDS011;11878;51.774;7.220;2022-09-24T04:32:40;24.43;;;14.47;;
23410;SDS011;11878;51.774;7.220;2022-09-24T04:35:42;21.43;;;13.87;;
23410;SDS011;11878;51.774;7.220;2022-09-24T04:38:45;21.97;;;13.10;;
23410;SDS011;11878;51.774;7.220;2022-09-24T04:41:47;26.03;;;14.33;;
23410;SDS011;11878;51.774;7.220;2022-09-24T04:44:49;21.93;;;13.30;;
23410;SDS011;11878;51.774;7.220;2022-09-24T04:47:56;24.77;;;13.73;;
23410;SDS011;11878;51.774;7.220;2022-09-24T04:50:58;25.13;;;14.00;;
23410;SDS011;11878;51.774;7.220;2022-09-24T04:54:00;22.10;;;12.80;;
23410;SDS011;11878;51.774;7.220;2022-09-24T04:57:05;20.57;;;12.43;;
23410;SDS011;11878;51.774;7.220;2022-09-24T05:00:08;25.67;;;13.97;;
23410;SDS011;11878;51.774;7.220;2022-09-24T05:03:14;24.47;;;14.10;;
23410;SDS011;11878;51.774;7.220;2022-09-24T05:06:16;23.77;;;13.30;;
23410;SDS011;11878;51.774;7.220;2022-09-24T05:09:18;23.13;;;13.83;;
23410;SDS011;11878;51.774;7.220;2022-09-24T05:12:19;23.20;;;13.77;;
23410;SDS011;11878;51.774;7.220;2022-09-24T05:15:21;20.37;;;13.27;;
23410;SDS011;11878;51.774;7.220;2022-09-24T05:18:23;22.37;;;13.30;;
23410;SDS011;11878;51.774;7.220;2022-09-24T05:21:25;25.80;;;13.03;;
23410;SDS011;11878;51.774;7.220;2022-09-24T05:24:26;19.97;;;11.93;;
23410;SDS011;11878;51.774;7.220;2022-09-24T05:27:28;20.80;;;12.33;;
23410;SDS011;11878;51.774;7.220;2022-09-24T05:30:30;23.03;;;11.40;;
23410;SDS011;11878;51.774;7.220;2022-09-24T05:33:31;25.50;;;13.27;;
23410;SDS011;11878;51.774;7.220;2022-09-24T05:36:33;20.70;;;12.73;;
23410;SDS011;11878;51.774;7.220;2022-09-24T05:39:35;24.53;;;13.03;;
23410;SDS011;11878;51.774;7.220;2022-09-24T05:42:37;24.07;;;14.60;;
23410;SDS011;11878;51.774;7.220;2022-09-24T05:45:39;26.10;;;14.30;;
23410;SDS011;11878;51.774;7.220;2022-09-24T05:48:44;24.60;;;14.63;;
23410;SDS011;11878;51.774;7.220;2022-09-24T05:51:47;24.30;;;14.43;;
23410;SDS011;11878;51.774;7.220;2022-09-24T05:54:50;27.50;;;15.60;;
23410;SDS011;11878;51.774;7.220;2022-09-24T05:57:52;36.20;;;17.47;;
23410;SDS011;11878;51.774;7.220;2022-09-24T06:00:53;28.53;;;15.97;;
23410;SDS011;11878;51.774;7.220;2022-09-24T06:03:55;33.07;;;16.60;;
23410;SDS011;11878;51.774;7.220;2022-09-24T06:06:58;29.47;;;17.23;;
23410;SDS011;11878;51.774;7.220;2022-09-24T06:09:59;33.33;;;17.63;;
23410;SDS011;11878;51.774;7.220;2022-09-24T06:13:01;32.73;;;18.00;;
23410;SDS011;11878;51.774;7.220;2022-09-24T06:16:05;34.90;;;18.00;;
23410;SDS011;11878;51.774;7.220;2022-09-24T06:19:09;32.67;;;17.77;;
23410;SDS011;11878;51.774;7.220;2022-09-24T06:22:10;31.53;;;17.77;;
23410;SDS011;11878;51.774;7.220;2022-09-24T06:25:12;34.97;;;18.00;;
23410;SDS011;11878;51.774;7.220;2022-09-24T06:28:14;32.07;;;18.07;;
23410;SDS011;11878;51.774;7.220;2022-09-24T06:31:16;34.13;;;18.50;;
23410;SDS011;11878;51.774;7.220;2022-09-24T06:34:18;31.30;;;17.93;;
23410;SDS011;11878;51.774;7.220;2022-09-24T06:37:19;33.30;;;18.97;;
23410;SDS011;11878;51.774;7.220;2022-09-24T06:40:21;41.30;;;20.60;;
23410;SDS011;11878;51.774;7.220;2022-09-24T06:43:26;34.03;;;19.80;;
23410;SDS011;11878;51.774;7.220;2022-09-24T06:46:27;35.60;;;19.07;;
23410;SDS011;11878;51.774;7.220;2022-09-24T06:49:30;34.93;;;20.60;;
23410;SDS011;11878;51.774;7.220;2022-09-24T06:52:34;36.30;;;21.10;;
23410;SDS011;11878;51.774;7.220;2022-09-24T06:55:36;33.87;;;20.00;;
23410;SDS011;11878;51.774;7.220;2022-09-24T06:58:39;36.37;;;19.87;;
23410;SDS011;11878;51.774;7.220;2022-09-24T07:01:40;48.27;;;22.63;;
23410;SDS011;11878;51.774;7.220;2022-09-24T07:04:42;41.23;;;23.43;;
23410;SDS011;11878;51.774;7.220;2022-09-24T07:07:44;40.07;;;22.50;;
23410;SDS011;11878;51.774;7.220;2022-09-24T07:10:46;42.93;;;22.30;;
23410;SDS011;11878;51.774;7.220;2022-09-24T07:13:50;41.80;;;22.67;;
23410;SDS011;11878;51.774;7.220;2022-09-24T07:16:52;39.23;;;22.33;;
23410;SDS011;11878;51.774;7.220;2022-09-24T07:19:54;38.40;;;21.10;;
23410;SDS011;11878;51.774;7.220;2022-09-24T07:22:55;42.17;;;21.70;;
23410;SDS011;11878;51.774;7.220;2022-09-24T07:25:57;41.13;;;22.30;;
23410;SDS011;11878;51.774;7.220;2022-09-24T07:28:59;45.03;;;24.00;;
23410;SDS011;11878;51.774;7.220;2022-09-24T07:32:02;44.03;;;21.77;;
23410;SDS011;11878;51.774;7.220;2022-09-24T07:35:04;38.63;;;21.83;;
23410;SDS011;11878;51.774;7.220;2022-09-24T07:38:08;38.63;;;21.53;;
23410;SDS011;11878;51.774;7.220;2022-09-24T07:41:16;40.00;;;21.87;;
23410;SDS011;11878;51.774;7.220;2022-09-24T07:44:20;40.73;;;22.23;;
23410;SDS011;11878;51.774;7.220;2022-09-24T07:47:25;41.10;;;21.87;;
23410;SDS011;11878;51.774;7.220;2022-09-24T07:50:28;37.80;;;21.97;;
23410;SDS011;11878;51.774;7.220;2022-09-24T07:53:31;40.13;;;21.03;;
23410;SDS011;11878;51.774;7.220;2022-09-24T07:56:32;34.57;;;18.47;;
23410;SDS011;11878;51.774;7.220;2022-09-24T07:59:35;38.07;;;20.17;;
23410;SDS011;11878;51.774;7.220;2022-09-24T08:02:37;33.80;;;20.50;;
23410;SDS011;11878;51.774;7.220;2022-09-24T08:05:43;33.77;;;19.50;;
23410;SDS011;11878;51.774;7.220;2022-09-24T08:08:47;34.37;;;19.13;;
23410;SDS011;11878;51.774;7.220;2022-09-24T08:11:49;33.80;;;17.63;;
23410;SDS011;11878;51.774;7.220;2022-09-24T08:14:51;34.60;;;19.60;;
23410;SDS011;11878;51.774;7.220;2022-09-24T08:17:53;39.50;;;19.47;;
23410;SDS011;11878;51.774;7.220;2022-09-24T08:20:54;37.17;;;17.90;;
23410;SDS011;11878;51.774;7.220;2022-09-24T08:23:56;35.83;;;19.57;;
23410;SDS011;11878;51.774;7.220;2022-09-24T08:26:58;33.23;;;18.23;;
23410;SDS011;11878;51.774;7.220;2022-09-24T08:29:59;32.87;;;18.40;;
23410;SDS011;11878;51.774;7.220;2022-09-24T08:33:01;35.17;;;17.93;;
23410;SDS011;11878;51.774;7.220;2022-09-24T08:36:07;31.17;;;16.73;;
23410;SDS011;11878;51.774;7.220;2022-09-24T08:39:10;29.70;;;16.43;;
23410;SDS011;11878;51.774;7.220;2022-09-24T08:42:14;31.17;;;15.70;;
23410;SDS011;11878;51.774;7.220;2022-09-24T08:45:45;32.20;;;16.47;;
23410;SDS011;11878;51.774;7.220;2022-09-24T08:49:14;28.50;;;16.00;;
23410;SDS011;11878;51.774;7.220;2022-09-24T08:55:37;30.53;;;16.73;;
23410;SDS011;11878;51.774;7.220;2022-09-24T09:02:26;33.40;;;17.23;;
23410;SDS011;11878;51.774;7.220;2022-09-24T09:05:58;32.23;;;17.27;;
23410;SDS011;11878;51.774;7.220;2022-09-24T09:09:09;36.47;;;17.83;;
23410;SDS011;11878;51.774;7.220;2022-09-24T09:12:17;32.90;;;17.97;;
23410;SDS011;11878;51.774;7.220;2022-09-24T09:15:27;32.43;;;16.63;;
23410;SDS011;11878;51.774;7.220;2022-09-24T09:21:41;30.90;;;16.87;;
23410;SDS011;11878;51.774;7.220;2022-09-24T09:24:46;27.80;;;15.67;;
23410;SDS011;11878;51.774;7.220;2022-09-24T09:34:19;32.07;;;16.17;;
23410;SDS011;11878;51.774;7.220;2022-09-24T09:44:25;23.23;;;12.93;;
23410;SDS011;11878;51.774;7.220;2022-09-24T09:47:45;26.30;;;12.93;;
23410;SDS011;11878;51.774;7.220;2022-09-24T09:50:58;23.33;;;12.30;;
23410;SDS011;11878;51.774;7.220;2022-09-24T09:54:05;20.63;;;10.30;;
23410;SDS011;11878;51.774;7.220;2022-09-24T09:57:07;24.63;;;11.40;;
23410;SDS011;11878;51.774;7.220;2022-09-24T10:00:27;16.07;;;9.60;;
23410;SDS011;11878;51.774;7.220;2022-09-24T10:06:49;17.10;;;10.27;;
23410;SDS011;11878;51.774;7.220;2022-09-24T10:10:01;24.27;;;14.30;;
23410;SDS011;11878;51.774;7.220;2022-09-24T10:13:21;30.13;;;14.30;;
23410;SDS011;11878;51.774;7.220;2022-09-24T10:16:23;21.27;;;11.13;;
23410;SDS011;11878;51.774;7.220;2022-09-24T10:19:26;18.87;;;9.97;;
23410;SDS011;11878;51.774;7.220;2022-09-24T10:22:29;21.03;;;12.73;;
23410;SDS011;11878;51.774;7.220;2022-09-24T10:25:31;19.87;;;12.00;;
23410;SDS011;11878;51.774;7.220;2022-09-24T10:28:48;23.13;;;12.17;;
23410;SDS011;11878;51.774;7.220;2022-09-24T10:32:20;18.10;;;10.17;;
23410;SDS011;11878;51.774;7.220;2022-09-24T10:35:27;17.53;;;9.97;;
23410;SDS011;11878;51.774;7.220;2022-09-24T10:38:38;18.23;;;10.27;;
23410;SDS011;11878;51.774;7.220;2022-09-24T10:41:47;16.17;;;8.47;;
23410;SDS011;11878;51.774;7.220;2022-09-24T10:44:50;16.37;;;9.00;;
23410;SDS011;11878;51.774;7.220;2022-09-24T10:48:01;17.40;;;10.30;;
23410;SDS011;11878;51.774;7.220;2022-09-24T10:51:19;17.03;;;9.77;;
23410;SDS011;11878;51.774;7.220;2022-09-24T11:15:08;13.97;;;7.93;;
23410;SDS011;11878;51.774;7.220;2022-09-24T11:18:36;11.30;;;7.10;;
23410;SDS011;11878;51.774;7.220;2022-09-24T11:25:07;16.13;;;7.67;;
23410;SDS011;11878;51.774;7.220;2022-09-24T11:28:35;12.13;;;7.23;;
23410;SDS011;11878;51.774;7.220;2022-09-24T11:32:03;15.60;;;7.80;;
23410;SDS011;11878;51.774;7.220;2022-09-24T11:38:55;12.37;;;7.67;;
23410;SDS011;11878;51.774;7.220;2022-09-24T11:58:39;11.33;;;6.53;;
23410;SDS011;11878;51.774;7.220;2022-09-24T12:08:29;10.47;;;5.63;;
23410;SDS011;11878;51.774;7.220;2022-09-24T12:18:29;10.13;;;6.30;;
23410;SDS011;11878;51.774;7.220;2022-09-24T12:21:36;10.30;;;6.80;;
23410;SDS011;11878;51.774;7.220;2022-09-24T12:24:44;11.90;;;5.90;;
23410;SDS011;11878;51.774;7.220;2022-09-24T12:27:49;11.13;;;6.43;;
23410;SDS011;11878;51.774;7.220;2022-09-24T12:30:53;8.50;;;5.63;;
23410;SDS011;11878;51.774;7.220;2022-09-24T12:34:25;9.53;;;5.70;;
23410;SDS011;11878;51.774;7.220;2022-09-24T12:37:40;9.60;;;5.50;;
23410;SDS011;11878;51.774;7.220;2022-09-24T12:44:10;12.27;;;6.93;;
23410;SDS011;11878;51.774;7.220;2022-09-24T12:47:26;10.97;;;6.63;;
23410;SDS011;11878;51.774;7.220;2022-09-24T12:50:33;10.23;;;6.00;;
23410;SDS011;11878;51.774;7.220;2022-09-24T12:53:39;9.83;;;5.47;;
23410;SDS011;11878;51.774;7.220;2022-09-24T12:56:43;9.50;;;6.20;;
23410;SDS011;11878;51.774;7.220;2022-09-24T12:59:49;12.40;;;5.87;;
23410;SDS011;11878;51.774;7.220;2022-09-24T13:02:51;11.73;;;5.37;;
23410;SDS011;11878;51.774;7.220;2022-09-24T13:05:53;9.60;;;5.47;;
23410;SDS011;11878;51.774;7.220;2022-09-24T13:08:56;11.67;;;7.03;;
23410;SDS011;11878;51.774;7.220;2022-09-24T13:12:03;7.63;;;4.87;;
23410;SDS011;11878;51.774;7.220;2022-09-24T13:18:40;9.27;;;5.07;;
23410;SDS011;11878;51.774;7.220;2022-09-24T13:21:51;9.00;;;5.20;;
23410;SDS011;11878;51.774;7.220;2022-09-24T13:25:40;10.73;;;5.23;;
23410;SDS011;11878;51.774;7.220;2022-09-24T13:28:24;9.00;;;5.07;;
23410;SDS011;11878;51.774;7.220;2022-09-24T13:31:43;9.30;;;4.93;;
23410;SDS011;11878;51.774;7.220;2022-09-24T13:34:49;8.10;;;4.60;;
23410;SDS011;11878;51.774;7.220;2022-09-24T13:37:57;9.03;;;5.30;;
23410;SDS011;11878;51.774;7.220;2022-09-24T13:41:36;9.33;;;4.63;;
23410;SDS011;11878;51.774;7.220;2022-09-24T13:48:03;9.90;;;5.70;;
23410;SDS011;11878;51.774;7.220;2022-09-24T13:51:15;7.40;;;4.83;;
23410;SDS011;11878;51.774;7.220;2022-09-24T13:54:29;9.43;;;6.10;;
23410;SDS011;11878;51.774;7.220;2022-09-24T13:57:41;9.00;;;5.33;;
23410;SDS011;11878;51.774;7.220;2022-09-24T14:00:47;10.10;;;5.47;;
23410;SDS011;11878;51.774;7.220;2022-09-24T14:03:56;9.60;;;5.50;;
23410;SDS011;11878;51.774;7.220;2022-09-24T14:07:01;10.13;;;5.37;;
23410;SDS011;11878;51.774;7.220;2022-09-24T14:10:04;11.50;;;5.80;;
23410;SDS011;11878;51.774;7.220;2022-09-24T14:16:27;10.63;;;5.70;;
23410;SDS011;11878;51.774;7.220;2022-09-24T14:19:28;12.60;;;6.63;;
23410;SDS011;11878;51.774;7.220;2022-09-24T14:22:33;10.80;;;5.80;;
23410;SDS011;11878;51.774;7.220;2022-09-24T14:25:38;11.27;;;6.97;;
23410;SDS011;11878;51.774;7.220;2022-09-24T14:28:40;9.67;;;6.20;;
23410;SDS011;11878;51.774;7.220;2022-09-24T14:31:42;8.93;;;6.30;;
23410;SDS011;11878;51.774;7.220;2022-09-24T14:34:46;9.20;;;5.83;;
23410;SDS011;11878;51.774;7.220;2022-09-24T14:37:53;10.70;;;5.83;;
23410;SDS011;11878;51.774;7.220;2022-09-24T14:41:28;11.43;;;6.00;;
23410;SDS011;11878;51.774;7.220;2022-09-24T14:44:32;10.33;;;5.57;;
23410;SDS011;11878;51.774;7.220;2022-09-24T14:47:35;10.27;;;6.30;;
23410;SDS011;11878;51.774;7.220;2022-09-24T14:50:38;10.63;;;5.57;;
23410;SDS011;11878;51.774;7.220;2022-09-24T14:53:40;9.13;;;5.47;;
23410;SDS011;11878;51.774;7.220;2022-09-24T14:56:42;15.87;;;6.37;;
23410;SDS011;11878;51.774;7.220;2022-09-24T14:59:45;9.33;;;6.40;;
23410;SDS011;11878;51.774;7.220;2022-09-24T15:02:57;10.97;;;5.07;;
23410;SDS011;11878;51.774;7.220;2022-09-24T15:06:12;8.30;;;5.40;;
23410;SDS011;11878;51.774;7.220;2022-09-24T15:09:25;9.97;;;6.07;;
23410;SDS011;11878;51.774;7.220;2022-09-24T15:12:32;10.67;;;6.50;;
23410;SDS011;11878;51.774;7.220;2022-09-24T15:15:40;12.23;;;6.00;;
23410;SDS011;11878;51.774;7.220;2022-09-24T15:18:42;10.33;;;5.90;;
23410;SDS011;11878;51.774;7.220;2022-09-24T15:21:45;12.00;;;7.00;;
23410;SDS011;11878;51.774;7.220;2022-09-24T15:24:52;9.77;;;6.77;;
23410;SDS011;11878;51.774;7.220;2022-09-24T15:28:01;12.57;;;6.33;;
23410;SDS011;11878;51.774;7.220;2022-09-24T15:31:03;10.53;;;6.20;;
23410;SDS011;11878;51.774;7.220;2022-09-24T15:34:05;8.60;;;5.77;;
23410;SDS011;11878;51.774;7.220;2022-09-24T15:37:08;11.27;;;6.30;;
23410;SDS011;11878;51.774;7.220;2022-09-24T15:40:16;16.03;;;7.43;;
23410;SDS011;11878;51.774;7.220;2022-09-24T15:43:23;12.33;;;6.37;;
23410;SDS011;11878;51.774;7.220;2022-09-24T15:46:25;11.50;;;5.93;;
23410;SDS011;11878;51.774;7.220;2022-09-24T15:49:27;14.83;;;6.87;;
23410;SDS011;11878;51.774;7.220;2022-09-24T15:52:29;12.03;;;7.17;;
23410;SDS011;11878;51.774;7.220;2022-09-24T15:55:33;11.27;;;6.23;;
23410;SDS011;11878;51.774;7.220;2022-09-24T15:58:36;12.60;;;6.53;;
23410;SDS011;11878;51.774;7.220;2022-09-24T16:01:38;13.27;;;7.43;;
23410;SDS011;11878;51.774;7.220;2022-09-24T16:04:40;13.73;;;7.40;;
23410;SDS011;11878;51.774;7.220;2022-09-24T16:07:41;13.33;;;6.57;;
23410;SDS011;11878;51.774;7.220;2022-09-24T16:10:43;12.40;;;6.23;;
23410;SDS011;11878;51.774;7.220;2022-09-24T16:13:48;12.17;;;7.00;;
23410;SDS011;11878;51.774;7.220;2022-09-24T16:16:50;10.33;;;6.60;;
23410;SDS011;11878;51.774;7.220;2022-09-24T16:19:52;11.67;;;6.30;;
23410;SDS011;11878;51.774;7.220;2022-09-24T16:22:53;14.97;;;7.13;;
23410;SDS011;11878;51.774;7.220;2022-09-24T16:25:56;12.37;;;7.20;;
23410;SDS011;11878;51.774;7.220;2022-09-24T16:29:02;11.47;;;6.90;;
23410;SDS011;11878;51.774;7.220;2022-09-24T16:32:04;12.30;;;7.10;;
23410;SDS011;11878;51.774;7.220;2022-09-24T16:35:06;12.23;;;7.07;;
23410;SDS011;11878;51.774;7.220;2022-09-24T16:38:11;12.00;;;7.83;;
23410;SDS011;11878;51.774;7.220;2022-09-24T16:41:12;9.70;;;6.40;;
23410;SDS011;11878;51.774;7.220;2022-09-24T16:44:14;11.80;;;6.97;;
23410;SDS011;11878;51.774;7.220;2022-09-24T16:47:16;13.87;;;6.83;;
23410;SDS011;11878;51.774;7.220;2022-09-24T16:50:18;12.30;;;6.60;;
23410;SDS011;11878;51.774;7.220;2022-09-24T16:53:23;14.03;;;7.43;;
23410;SDS011;11878;51.774;7.220;2022-09-24T16:56:25;11.37;;;7.10;;
23410;SDS011;11878;51.774;7.220;2022-09-24T16:59:27;12.63;;;7.97;;
23410;SDS011;11878;51.774;7.220;2022-09-24T17:02:29;12.63;;;7.37;;
23410;SDS011;11878;51.774;7.220;2022-09-24T17:05:30;12.57;;;7.27;;
23410;SDS011;11878;51.774;7.220;2022-09-24T17:08:40;14.70;;;7.20;;
23410;SDS011;11878;51.774;7.220;2022-09-24T17:12:01;14.80;;;7.30;;
23410;SDS011;11878;51.774;7.220;2022-09-24T17:15:02;13.30;;;9.23;;
23410;SDS011;11878;51.774;7.220;2022-09-24T17:18:04;14.60;;;7.93;;
23410;SDS011;11878;51.774;7.220;2022-09-24T17:21:07;13.70;;;8.03;;
23410;SDS011;11878;51.774;7.220;2022-09-24T17:24:15;14.90;;;7.83;;
23410;SDS011;11878;51.774;7.220;2022-09-24T17:27:22;12.80;;;7.40;;
23410;SDS011;11878;51.774;7.220;2022-09-24T17:30:24;12.80;;;6.90;;
23410;SDS011;11878;51.774;7.220;2022-09-24T17:33:27;10.77;;;7.33;;
23410;SDS011;11878;51.774;7.220;2022-09-24T17:36:43;14.90;;;7.83;;
23410;SDS011;11878;51.774;7.220;2022-09-24T17:39:45;11.13;;;7.57;;
23410;SDS011;11878;51.774;7.220;2022-09-24T17:42:47;12.53;;;8.10;;
23410;SDS011;11878;51.774;7.220;2022-09-24T17:46:22;16.03;;;8.90;;
23410;SDS011;11878;51.774;7.220;2022-09-24T17:49:19;15.47;;;9.17;;
23410;SDS011;11878;51.774;7.220;2022-09-24T17:52:21;13.33;;;8.67;;
23410;SDS011;11878;51.774;7.220;2022-09-24T17:55:22;18.77;;;9.50;;
23410;SDS011;11878;51.774;7.220;2022-09-24T17:58:24;12.90;;;8.33;;
23410;SDS011;11878;51.774;7.220;2022-09-24T18:01:27;14.70;;;8.73;;
23410;SDS011;11878;51.774;7.220;2022-09-24T18:04:33;13.80;;;8.03;;
23410;SDS011;11878;51.774;7.220;2022-09-24T18:07:38;15.90;;;9.20;;
23410;SDS011;11878;51.774;7.220;2022-09-24T18:10:40;17.97;;;9.27;;
23410;SDS011;11878;51.774;7.220;2022-09-24T18:13:42;17.10;;;9.50;;
23410;SDS011;11878;51.774;7.220;2022-09-24T18:16:44;18.40;;;9.77;;
23410;SDS011;11878;51.774;7.220;2022-09-24T18:19:46;15.63;;;9.70;;
23410;SDS011;11878;51.774;7.220;2022-09-24T18:22:47;16.70;;;8.53;;
23410;SDS011;11878;51.774;7.220;2022-09-24T18:25:49;19.57;;;10.53;;
23410;SDS011;11878;51.774;7.220;2022-09-24T18:28:52;15.63;;;9.43;;
23410;SDS011;11878;51.774;7.220;2022-09-24T18:31:55;13.90;;;8.57;;
23410;SDS011;11878;51.774;7.220;2022-09-24T18:34:57;10.67;;;7.30;;
23410;SDS011;11878;51.774;7.220;2022-09-24T18:37:58;15.00;;;8.53;;
23410;SDS011;11878;51.774;7.220;2022-09-24T18:41:05;16.50;;;8.27;;
23410;SDS011;11878;51.774;7.220;2022-09-24T18:44:09;17.43;;;8.27;;
23410;SDS011;11878;51.774;7.220;2022-09-24T18:47:11;15.40;;;9.50;;
23410;SDS011;11878;51.774;7.220;2022-09-24T18:50:14;14.20;;;8.63;;
23410;SDS011;11878;51.774;7.220;2022-09-24T18:53:16;16.77;;;9.03;;
23410;SDS011;11878;51.774;7.220;2022-09-24T18:56:18;15.03;;;8.73;;
23410;SDS011;11878;51.774;7.220;2022-09-24T18:59:20;14.60;;;9.43;;
23410;SDS011;11878;51.774;7.220;2022-09-24T19:02:21;16.20;;;8.30;;
23410;SDS011;11878;51.774;7.220;2022-09-24T19:05:25;14.93;;;8.73;;
23410;SDS011;11878;51.774;7.220;2022-09-24T19:08:28;17.77;;;8.50;;
23410;SDS011;11878;51.774;7.220;2022-09-24T19:11:32;19.07;;;9.77;;
23410;SDS011;11878;51.774;7.220;2022-09-24T19:14:34;13.80;;;8.50;;
23410;SDS011;11878;51.774;7.220;2022-09-24T19:17:35;15.17;;;8.50;;
23410;SDS011;11878;51.774;7.220;2022-09-24T19:20:41;14.70;;;7.67;;
23410;SDS011;11878;51.774;7.220;2022-09-24T19:23:46;14.03;;;7.67;;
23410;SDS011;11878;51.774;7.220;2022-09-24T19:26:49;16.97;;;7.87;;
23410;SDS011;11878;51.774;7.220;2022-09-24T19:29:51;12.27;;;7.67;;
23410;SDS011;11878;51.774;7.220;2022-09-24T19:32:53;14.20;;;7.07;;
23410;SDS011;11878;51.774;7.220;2022-09-24T19:35:56;12.00;;;6.53;;
23410;SDS011;11878;51.774;7.220;2022-09-24T19:39:01;12.50;;;6.47;;
23410;SDS011;11878;51.774;7.220;2022-09-24T19:42:03;11.80;;;6.53;;
23410;SDS011;11878;51.774;7.220;2022-09-24T19:45:05;12.93;;;7.50;;
23410;SDS011;11878;51.774;7.220;2022-09-24T19:48:07;12.33;;;7.03;;
23410;SDS011;11878;51.774;7.220;2022-09-24T19:51:13;17.23;;;7.33;;
23410;SDS011;11878;51.774;7.220;2022-09-24T19:54:16;11.93;;;7.70;;
23410;SDS011;11878;51.774;7.220;2022-09-24T19:57:17;12.50;;;6.43;;
23410;SDS011;11878;51.774;7.220;2022-09-24T20:00:20;14.27;;;6.73;;
23410;SDS011;11878;51.774;7.220;2022-09-24T20:03:23;10.90;;;7.33;;
23410;SDS011;11878;51.774;7.220;2022-09-24T20:06:26;11.40;;;7.37;;